Impacts METAR Board INFO
IDs:

KMIA - Miami Intl, FL, US

Updated at: 2213 UTC 21 Jan 2018
Potential Impact None Slight Moderate High
Time21/10Z 21/11Z 21/12Z 21/13Z 21/14Z 21/15Z 21/16Z 21/17Z 21/18Z 21/19Z 21/20Z 21/21Z 21/22Z
VIS10 10 10 10 10 10 10 10 10 10 10 10 10
CIG60 60 130 130 140 28 39 35 45 45 140 -- --
CoverOVCOVCOVCOVCOVCOVCOVCOVCBKNOVCBKNSCTSCT
FltCatVFRVFRVFRVFRVFRMVFRVFRVFRVFRVFRVFRVFRVFR
WX--------------------------
WDir100110100110110110901007080709070
WSpd12 7 11 10 12 9 10 11 9 12 11 12 11
WGst-- -- -- -- -- -- -- -- -- -- -- -- --
Raw hourly METARs
KMIA 210953Z 10012KT 10SM FEW030 BKN060 OVC250 22/18 A3014 RMK AO2 SLP206 T02170178
KMIA 211053Z 11007KT 10SM FEW030 BKN060 OVC250 22/18 A3015 RMK AO2 SLP209 T02220183
KMIA 211153Z COR 10011KT 10SM FEW030 SCT080 BKN130 OVC200 22/18 A3014 RMK AO2 SLP205 T02170183 10222 20211 56009
KMIA 211253Z 11010KT 10SM FEW025 SCT080 BKN130 OVC200 23/19 A3015 RMK AO2 SLP211 T02280189
KMIA 211353Z 11012KT 10SM FEW021 SCT080 BKN140 OVC200 23/19 A3016 RMK AO2 SLP212 T02330189
KMIA 211500Z 11009KT 10SM SCT023 BKN028 OVC140 24/19 A3019 RMK AO2 T02390189
KMIA 211553Z 09010KT 10SM SCT025 BKN039 OVC140 25/19 A3020 RMK AO2 SLP227 T02500189
KMIA 211653Z 10011KT 10SM SCT028 BKN035 BKN140 OVC250 26/18 A3018 RMK AO2 SLP219 T02560178
KMIA 211753Z 07009KT 10SM SCT030 BKN045 BKN150 BKN250 26/18 A3015 RMK AO2 SLP210 T02610178 10267 20206 58013
KMIA 211853Z 08012KT 10SM SCT030 BKN045 BKN140 OVC250 26/18 A3013 RMK AO2 SLP202 T02610178
KMIA 211953Z 07011KT 10SM FEW032 BKN140 BKN250 26/18 A3011 RMK AO2 SLP197 T02610178
KMIA 212053Z 09012KT 10SM FEW028 SCT140 SCT250 26/17 A3011 RMK AO2 SLP196 T02560172 56014
KMIA 212153Z 07011KT 10SM FEW025 FEW040 SCT140 SCT250 24/18 A3012 RMK AO2 SLP198 T02440178